sensor_id;sensor_type;location;lat;lon;timestamp;pressure;altitude;pressure_sealevel;temperature;humidity
50226;BME280;36113;50.742;6.432;2023-03-17T00:01:10;112741.81;;;-145.50;38.89
50226;BME280;36113;50.742;6.432;2023-03-17T00:03:38;112741.81;;;-145.50;39.08
50226;BME280;36113;50.742;6.432;2023-03-17T00:06:06;112741.81;;;-145.50;38.78
50226;BME280;36113;50.742;6.432;2023-03-17T00:08:38;112741.81;;;-145.50;38.86
50226;BME280;36113;50.742;6.432;2023-03-17T00:11:05;112741.81;;;-145.50;38.54
50226;BME280;36113;50.742;6.432;2023-03-17T00:13:34;112741.81;;;-145.50;39.50
50226;BME280;36113;50.742;6.432;2023-03-17T00:16:02;112741.81;;;-145.50;40.63
50226;BME280;36113;50.742;6.432;2023-03-17T00:18:28;112741.81;;;-145.50;41.34
50226;BME280;36113;50.742;6.432;2023-03-17T00:20:55;112741.81;;;-145.50;42.04
50226;BME280;36113;50.742;6.432;2023-03-17T00:23:23;112741.81;;;-145.50;42.80
50226;BME280;36113;50.742;6.432;2023-03-17T00:25:49;112741.81;;;-145.50;43.68
50226;BME280;36113;50.742;6.432;2023-03-17T00:28:27;112741.81;;;-145.50;44.08
50226;BME280;36113;50.742;6.432;2023-03-17T00:30:55;112741.81;;;-145.50;44.52
50226;BME280;36113;50.742;6.432;2023-03-17T00:33:26;112741.81;;;-145.50;44.73
50226;BME280;36113;50.742;6.432;2023-03-17T00:35:52;112741.81;;;-145.50;45.04
50226;BME280;36113;50.742;6.432;2023-03-17T00:38:19;112741.81;;;-145.50;45.77
50226;BME280;36113;50.742;6.432;2023-03-17T00:40:45;112741.81;;;-145.50;46.11
50226;BME280;36113;50.742;6.432;2023-03-17T00:43:11;112741.81;;;-145.50;47.12
50226;BME280;36113;50.742;6.432;2023-03-17T00:45:38;112741.81;;;-145.50;48.24
50226;BME280;36113;50.742;6.432;2023-03-17T00:48:20;112741.81;;;-145.50;49.37
50226;BME280;36113;50.742;6.432;2023-03-17T00:50:48;112741.81;;;-145.50;49.37
50226;BME280;36113;50.742;6.432;2023-03-17T00:53:18;112741.81;;;-145.50;46.65
50226;BME280;36113;50.742;6.432;2023-03-17T00:55:45;112741.81;;;-145.50;46.39
50226;BME280;36113;50.742;6.432;2023-03-17T00:58:12;112741.81;;;-145.50;46.07
50226;BME280;36113;50.742;6.432;2023-03-17T01:00:38;112741.81;;;-145.50;46.45
50226;BME280;36113;50.742;6.432;2023-03-17T01:03:04;112741.81;;;-145.50;46.89
50226;BME280;36113;50.742;6.432;2023-03-17T01:05:29;112741.81;;;-145.50;48.05
50226;BME280;36113;50.742;6.432;2023-03-17T01:07:55;112741.81;;;-145.50;49.29
50226;BME280;36113;50.742;6.432;2023-03-17T01:10:25;112741.81;;;-145.50;49.95
50226;BME280;36113;50.742;6.432;2023-03-17T01:12:52;112741.81;;;-145.50;49.89
50226;BME280;36113;50.742;6.432;2023-03-17T01:15:19;112741.81;;;-145.50;50.46
50226;BME280;36113;50.742;6.432;2023-03-17T01:17:46;112741.81;;;-145.50;50.79
50226;BME280;36113;50.742;6.432;2023-03-17T01:20:31;112741.81;;;-145.50;51.60
50226;BME280;36113;50.742;6.432;2023-03-17T01:22:57;112741.81;;;-145.50;51.83
50226;BME280;36113;50.742;6.432;2023-03-17T01:25:23;112741.81;;;-145.50;51.75
50226;BME280;36113;50.742;6.432;2023-03-17T01:27:49;112741.81;;;-145.50;52.34
50226;BME280;36113;50.742;6.432;2023-03-17T01:32:43;112741.81;;;-145.50;53.25
50226;BME280;36113;50.742;6.432;2023-03-17T01:35:09;112741.81;;;-145.50;54.62
50226;BME280;36113;50.742;6.432;2023-03-17T01:37:35;112741.81;;;-145.50;55.56
50226;BME280;36113;50.742;6.432;2023-03-17T01:40:02;112741.81;;;-145.50;56.36
50226;BME280;36113;50.742;6.432;2023-03-17T01:42:27;112741.81;;;-145.50;58.57
50226;BME280;36113;50.742;6.432;2023-03-17T01:45:01;112741.81;;;-145.50;59.50
50226;BME280;36113;50.742;6.432;2023-03-17T01:47:28;112741.81;;;-145.50;60.26
50226;BME280;36113;50.742;6.432;2023-03-17T01:50:04;112741.81;;;-145.50;60.63
50226;BME280;36113;50.742;6.432;2023-03-17T01:52:32;112741.81;;;-145.50;60.62
50226;BME280;36113;50.742;6.432;2023-03-17T01:55:03;112741.81;;;-145.50;60.29
50226;BME280;36113;50.742;6.432;2023-03-17T01:57:34;112741.81;;;-145.50;60.55
50226;BME280;36113;50.742;6.432;2023-03-17T02:02:34;112741.81;;;-145.50;61.41
50226;BME280;36113;50.742;6.432;2023-03-17T02:05:01;112741.81;;;-145.50;62.89
50226;BME280;36113;50.742;6.432;2023-03-17T02:07:27;112741.81;;;-145.50;63.64
50226;BME280;36113;50.742;6.432;2023-03-17T02:09:54;112741.81;;;-145.50;64.36
50226;BME280;36113;50.742;6.432;2023-03-17T02:12:22;112741.81;;;-145.50;64.38
50226;BME280;36113;50.742;6.432;2023-03-17T02:14:49;112741.81;;;-145.50;64.28
50226;BME280;36113;50.742;6.432;2023-03-17T02:17:14;112741.81;;;-145.50;64.52
50226;BME280;36113;50.742;6.432;2023-03-17T02:19:39;112741.81;;;-145.50;64.54
50226;BME280;36113;50.742;6.432;2023-03-17T02:22:06;112741.81;;;-145.50;65.50
50226;BME280;36113;50.742;6.432;2023-03-17T02:24:36;112741.81;;;-145.50;66.97
50226;BME280;36113;50.742;6.432;2023-03-17T02:27:11;112741.81;;;-145.50;68.09
50226;BME280;36113;50.742;6.432;2023-03-17T02:29:37;112741.81;;;-145.50;68.13
50226;BME280;36113;50.742;6.432;2023-03-17T02:32:04;112741.81;;;-145.50;68.16
50226;BME280;36113;50.742;6.432;2023-03-17T02:34:31;112741.81;;;-145.50;67.42
50226;BME280;36113;50.742;6.432;2023-03-17T02:36:57;112741.81;;;-145.50;67.65
50226;BME280;36113;50.742;6.432;2023-03-17T02:39:23;112741.81;;;-145.50;67.88
50226;BME280;36113;50.742;6.432;2023-03-17T02:41:48;112741.81;;;-145.50;68.23
50226;BME280;36113;50.742;6.432;2023-03-17T02:44:14;112741.81;;;-145.50;67.88
50226;BME280;36113;50.742;6.432;2023-03-17T02:46:40;112741.81;;;-145.50;68.04
50226;BME280;36113;50.742;6.432;2023-03-17T02:49:05;112741.81;;;-145.50;67.75
50226;BME280;36113;50.742;6.432;2023-03-17T02:51:31;112741.81;;;-145.50;67.09
50226;BME280;36113;50.742;6.432;2023-03-17T02:53:56;112741.81;;;-145.50;66.87
50226;BME280;36113;50.742;6.432;2023-03-17T02:56:21;112741.81;;;-145.50;66.07
50226;BME280;36113;50.742;6.432;2023-03-17T02:58:47;112741.81;;;-145.50;65.44
50226;BME280;36113;50.742;6.432;2023-03-17T03:01:12;112741.81;;;-145.50;64.73
50226;BME280;36113;50.742;6.432;2023-03-17T03:03:37;112741.81;;;-145.50;63.45
50226;BME280;36113;50.742;6.432;2023-03-17T03:06:03;112741.81;;;-145.50;61.92
50226;BME280;36113;50.742;6.432;2023-03-17T03:08:28;112741.81;;;-145.50;58.82
50226;BME280;36113;50.742;6.432;2023-03-17T03:10:54;112741.81;;;-145.50;56.71
50226;BME280;36113;50.742;6.432;2023-03-17T03:13:19;112741.81;;;-145.50;54.84
50226;BME280;36113;50.742;6.432;2023-03-17T03:15:46;112741.81;;;-145.50;53.68
50226;BME280;36113;50.742;6.432;2023-03-17T03:18:12;112741.81;;;-145.50;52.23
50226;BME280;36113;50.742;6.432;2023-03-17T03:20:37;112741.81;;;-145.50;51.68
50226;BME280;36113;50.742;6.432;2023-03-17T03:23:05;112741.81;;;-145.50;51.05
50226;BME280;36113;50.742;6.432;2023-03-17T03:25:30;112741.81;;;-145.50;51.40
50226;BME280;36113;50.742;6.432;2023-03-17T03:27:56;112741.81;;;-145.50;50.84
50226;BME280;36113;50.742;6.432;2023-03-17T03:30:21;112741.81;;;-145.50;51.03
50226;BME280;36113;50.742;6.432;2023-03-17T03:32:46;112741.81;;;-145.50;51.34
50226;BME280;36113;50.742;6.432;2023-03-17T03:35:12;112741.81;;;-145.50;51.62
50226;BME280;36113;50.742;6.432;2023-03-17T03:37:37;112741.81;;;-145.50;52.05
50226;BME280;36113;50.742;6.432;2023-03-17T03:40:03;112741.81;;;-145.50;51.66
50226;BME280;36113;50.742;6.432;2023-03-17T03:42:31;112741.81;;;-145.50;51.80
50226;BME280;36113;50.742;6.432;2023-03-17T03:44:56;112741.81;;;-145.50;51.64
50226;BME280;36113;50.742;6.432;2023-03-17T03:47:22;112741.81;;;-145.50;51.69
50226;BME280;36113;50.742;6.432;2023-03-17T03:49:47;112741.81;;;-145.50;51.31
50226;BME280;36113;50.742;6.432;2023-03-17T03:52:12;112741.81;;;-145.50;51.44
50226;BME280;36113;50.742;6.432;2023-03-17T03:54:38;112741.81;;;-145.50;50.79
50226;BME280;36113;50.742;6.432;2023-03-17T03:57:03;112741.81;;;-145.50;50.66
50226;BME280;36113;50.742;6.432;2023-03-17T03:59:28;112741.81;;;-145.50;50.82
50226;BME280;36113;50.742;6.432;2023-03-17T04:01:54;112741.81;;;-145.50;50.06
50226;BME280;36113;50.742;6.432;2023-03-17T04:04:20;112741.81;;;-145.50;50.50
50226;BME280;36113;50.742;6.432;2023-03-17T04:06:45;112741.81;;;-145.50;51.05
50226;BME280;36113;50.742;6.432;2023-03-17T04:09:11;112741.81;;;-145.50;50.71
50226;BME280;36113;50.742;6.432;2023-03-17T04:11:37;112741.81;;;-145.50;50.24
50226;BME280;36113;50.742;6.432;2023-03-17T04:14:02;112741.81;;;-145.50;50.16
50226;BME280;36113;50.742;6.432;2023-03-17T04:16:28;112741.81;;;-145.50;50.20
50226;BME280;36113;50.742;6.432;2023-03-17T04:18:53;112741.81;;;-145.50;50.42
50226;BME280;36113;50.742;6.432;2023-03-17T04:21:18;112741.81;;;-145.50;50.88
50226;BME280;36113;50.742;6.432;2023-03-17T04:23:45;112741.81;;;-145.50;50.81
50226;BME280;36113;50.742;6.432;2023-03-17T04:26:11;112741.81;;;-145.50;51.22
50226;BME280;36113;50.742;6.432;2023-03-17T04:28:37;112741.81;;;-145.50;50.99
50226;BME280;36113;50.742;6.432;2023-03-17T04:31:03;112741.81;;;-145.50;51.03
50226;BME280;36113;50.742;6.432;2023-03-17T04:33:28;112741.81;;;-145.50;50.95
50226;BME280;36113;50.742;6.432;2023-03-17T04:35:56;112741.81;;;-145.50;50.64
50226;BME280;36113;50.742;6.432;2023-03-17T04:38:22;112741.81;;;-145.50;50.69
50226;BME280;36113;50.742;6.432;2023-03-17T04:40:49;112741.81;;;-145.50;51.03
50226;BME280;36113;50.742;6.432;2023-03-17T04:43:14;112741.81;;;-145.50;50.84
50226;BME280;36113;50.742;6.432;2023-03-17T04:45:41;112741.81;;;-145.50;50.70
50226;BME280;36113;50.742;6.432;2023-03-17T04:48:06;112741.81;;;-145.50;50.77
50226;BME280;36113;50.742;6.432;2023-03-17T04:50:31;112741.81;;;-145.50;50.38
50226;BME280;36113;50.742;6.432;2023-03-17T04:52:57;112741.81;;;-145.50;50.80
50226;BME280;36113;50.742;6.432;2023-03-17T04:55:22;112741.81;;;-145.50;51.28
50226;BME280;36113;50.742;6.432;2023-03-17T04:57:47;112741.81;;;-145.50;51.36
50226;BME280;36113;50.742;6.432;2023-03-17T05:00:13;112741.81;;;-145.50;51.01
50226;BME280;36113;50.742;6.432;2023-03-17T05:02:39;112741.81;;;-145.50;51.97
50226;BME280;36113;50.742;6.432;2023-03-17T05:05:05;112741.81;;;-145.50;51.54
50226;BME280;36113;50.742;6.432;2023-03-17T05:07:30;112741.81;;;-145.50;51.74
50226;BME280;36113;50.742;6.432;2023-03-17T05:09:56;112741.81;;;-145.50;51.70
50226;BME280;36113;50.742;6.432;2023-03-17T05:12:21;112741.81;;;-145.50;52.01
50226;BME280;36113;50.742;6.432;2023-03-17T05:14:47;112741.81;;;-145.50;52.11
50226;BME280;36113;50.742;6.432;2023-03-17T05:17:12;112741.81;;;-145.50;52.05
50226;BME280;36113;50.742;6.432;2023-03-17T05:19:38;112741.81;;;-145.50;51.92
50226;BME280;36113;50.742;6.432;2023-03-17T05:22:03;112741.81;;;-145.50;51.88
50226;BME280;36113;50.742;6.432;2023-03-17T05:24:29;112741.81;;;-145.50;52.11
50226;BME280;36113;50.742;6.432;2023-03-17T05:26:54;112741.81;;;-145.50;52.20
50226;BME280;36113;50.742;6.432;2023-03-17T05:29:20;112741.81;;;-145.50;52.00
50226;BME280;36113;50.742;6.432;2023-03-17T05:31:45;112741.81;;;-145.50;51.97
50226;BME280;36113;50.742;6.432;2023-03-17T05:34:11;112741.81;;;-145.50;51.75
50226;BME280;36113;50.742;6.432;2023-03-17T05:36:37;112741.81;;;-145.50;52.07
50226;BME280;36113;50.742;6.432;2023-03-17T05:39:02;112741.81;;;-145.50;52.42
50226;BME280;36113;50.742;6.432;2023-03-17T05:41:28;112741.81;;;-145.50;52.38
50226;BME280;36113;50.742;6.432;2023-03-17T05:43:54;112741.81;;;-145.50;52.17
50226;BME280;36113;50.742;6.432;2023-03-17T05:46:19;112741.81;;;-145.50;52.40
50226;BME280;36113;50.742;6.432;2023-03-17T05:48:46;112741.81;;;-145.50;52.71
50226;BME280;36113;50.742;6.432;2023-03-17T05:51:11;112741.81;;;-145.50;52.43
50226;BME280;36113;50.742;6.432;2023-03-17T05:53:37;112741.81;;;-145.50;52.98
50226;BME280;36113;50.742;6.432;2023-03-17T05:56:03;112741.81;;;-145.50;53.20
50226;BME280;36113;50.742;6.432;2023-03-17T05:58:29;112741.81;;;-145.50;53.23
50226;BME280;36113;50.742;6.432;2023-03-17T06:00:54;112741.81;;;-145.50;53.43
50226;BME280;36113;50.742;6.432;2023-03-17T06:03:20;112741.81;;;-145.50;53.50
50226;BME280;36113;50.742;6.432;2023-03-17T06:05:46;112741.81;;;-145.50;53.68
50226;BME280;36113;50.742;6.432;2023-03-17T06:08:12;112741.81;;;-145.50;53.79
50226;BME280;36113;50.742;6.432;2023-03-17T06:10:38;112741.81;;;-145.50;53.58
50226;BME280;36113;50.742;6.432;2023-03-17T06:13:03;112741.81;;;-145.50;53.68
50226;BME280;36113;50.742;6.432;2023-03-17T06:15:28;112741.81;;;-145.50;54.07
50226;BME280;36113;50.742;6.432;2023-03-17T06:17:54;112741.81;;;-145.50;53.85
50226;BME280;36113;50.742;6.432;2023-03-17T06:20:19;112741.81;;;-145.50;53.52
50226;BME280;36113;50.742;6.432;2023-03-17T06:22:45;112741.81;;;-145.50;53.86
50226;BME280;36113;50.742;6.432;2023-03-17T06:25:11;112741.81;;;-145.50;53.77
50226;BME280;36113;50.742;6.432;2023-03-17T06:27:37;112741.81;;;-145.50;53.64
50226;BME280;36113;50.742;6.432;2023-03-17T06:30:03;112741.81;;;-145.50;53.34
50226;BME280;36113;50.742;6.432;2023-03-17T06:32:29;112741.81;;;-145.50;53.45
50226;BME280;36113;50.742;6.432;2023-03-17T06:34:55;112741.81;;;-145.50;53.49
50226;BME280;36113;50.742;6.432;2023-03-17T06:37:20;112741.81;;;-145.50;53.29
50226;BME280;36113;50.742;6.432;2023-03-17T06:39:46;112741.81;;;-145.50;53.66
50226;BME280;36113;50.742;6.432;2023-03-17T06:42:12;112741.81;;;-145.50;53.04
50226;BME280;36113;50.742;6.432;2023-03-17T06:44:37;112741.81;;;-145.50;52.32
50226;BME280;36113;50.742;6.432;2023-03-17T06:47:03;112741.81;;;-145.50;52.32
50226;BME280;36113;50.742;6.432;2023-03-17T06:49:29;112741.81;;;-145.50;52.36
50226;BME280;36113;50.742;6.432;2023-03-17T06:51:54;112741.81;;;-145.50;52.17
50226;BME280;36113;50.742;6.432;2023-03-17T06:54:20;112741.81;;;-145.50;51.76
50226;BME280;36113;50.742;6.432;2023-03-17T06:56:48;112741.81;;;-145.50;52.07
50226;BME280;36113;50.742;6.432;2023-03-17T06:59:14;112741.81;;;-145.50;52.21
50226;BME280;36113;50.742;6.432;2023-03-17T07:01:39;112741.81;;;-145.50;52.06
50226;BME280;36113;50.742;6.432;2023-03-17T07:04:05;112741.81;;;-145.50;51.74
50226;BME280;36113;50.742;6.432;2023-03-17T07:06:30;112741.81;;;-145.50;52.07
50226;BME280;36113;50.742;6.432;2023-03-17T07:08:56;112741.81;;;-145.50;51.81
50226;BME280;36113;50.742;6.432;2023-03-17T07:11:21;112741.81;;;-145.50;51.44
50226;BME280;36113;50.742;6.432;2023-03-17T07:13:48;112741.81;;;-145.50;51.76
50226;BME280;36113;50.742;6.432;2023-03-17T07:16:14;112741.81;;;-145.50;51.74
50226;BME280;36113;50.742;6.432;2023-03-17T07:18:40;112741.81;;;-145.50;51.59
50226;BME280;36113;50.742;6.432;2023-03-17T07:21:06;112741.81;;;-145.50;51.58
50226;BME280;36113;50.742;6.432;2023-03-17T07:23:31;112741.81;;;-145.50;51.34
50226;BME280;36113;50.742;6.432;2023-03-17T07:25:56;112741.81;;;-145.50;51.08
50226;BME280;36113;50.742;6.432;2023-03-17T07:28:22;112741.81;;;-145.50;51.07
50226;BME280;36113;50.742;6.432;2023-03-17T07:30:48;112741.81;;;-145.50;50.74
50226;BME280;36113;50.742;6.432;2023-03-17T07:33:15;112741.81;;;-145.50;50.88
50226;BME280;36113;50.742;6.432;2023-03-17T07:35:44;112741.81;;;-145.50;50.41
50226;BME280;36113;50.742;6.432;2023-03-17T07:38:09;112741.81;;;-145.50;50.33
50226;BME280;36113;50.742;6.432;2023-03-17T07:40:36;112741.81;;;-145.50;50.12
50226;BME280;36113;50.742;6.432;2023-03-17T07:43:02;112741.81;;;-145.50;50.24
50226;BME280;36113;50.742;6.432;2023-03-17T07:45:28;112741.81;;;-145.50;49.90
50226;BME280;36113;50.742;6.432;2023-03-17T07:47:54;112741.81;;;-145.50;49.71
50226;BME280;36113;50.742;6.432;2023-03-17T07:50:19;112741.81;;;-145.50;49.92
50226;BME280;36113;50.742;6.432;2023-03-17T07:52:45;112741.81;;;-145.50;50.46
50226;BME280;36113;50.742;6.432;2023-03-17T07:55:11;112741.81;;;-145.50;49.57
50226;BME280;36113;50.742;6.432;2023-03-17T07:57:37;112741.81;;;-145.50;49.34
50226;BME280;36113;50.742;6.432;2023-03-17T08:00:04;112741.81;;;-145.50;50.09
50226;BME280;36113;50.742;6.432;2023-03-17T08:02:33;112741.81;;;-145.50;49.55
50226;BME280;36113;50.742;6.432;2023-03-17T08:04:58;112741.81;;;-145.50;49.22
50226;BME280;36113;50.742;6.432;2023-03-17T08:07:24;112741.81;;;-145.50;49.42
50226;BME280;36113;50.742;6.432;2023-03-17T08:09:49;112741.81;;;-145.50;49.63
50226;BME280;36113;50.742;6.432;2023-03-17T08:12:15;112741.81;;;-145.50;49.13
50226;BME280;36113;50.742;6.432;2023-03-17T08:14:40;112741.81;;;-145.50;49.11
50226;BME280;36113;50.742;6.432;2023-03-17T08:17:06;112741.81;;;-145.50;48.28
50226;BME280;36113;50.742;6.432;2023-03-17T08:19:31;112741.81;;;-145.50;48.50
50226;BME280;36113;50.742;6.432;2023-03-17T08:21:57;112741.81;;;-145.50;48.23
50226;BME280;36113;50.742;6.432;2023-03-17T08:24:22;112741.81;;;-145.50;46.77
50226;BME280;36113;50.742;6.432;2023-03-17T08:26:48;112741.81;;;-145.50;47.24
50226;BME280;36113;50.742;6.432;2023-03-17T08:29:13;112741.81;;;-145.50;46.70
50226;BME280;36113;50.742;6.432;2023-03-17T08:31:39;112741.81;;;-145.50;47.03
50226;BME280;36113;50.742;6.432;2023-03-17T08:34:06;112741.81;;;-145.50;47.43
50226;BME280;36113;50.742;6.432;2023-03-17T08:36:31;112741.81;;;-145.50;47.66
50226;BME280;36113;50.742;6.432;2023-03-17T08:38:57;112741.81;;;-145.50;48.09
50226;BME280;36113;50.742;6.432;2023-03-17T08:41:25;112741.81;;;-145.50;48.55
50226;BME280;36113;50.742;6.432;2023-03-17T08:43:51;112741.81;;;-145.50;47.81
50226;BME280;36113;50.742;6.432;2023-03-17T08:46:22;112741.81;;;-145.50;48.13
50226;BME280;36113;50.742;6.432;2023-03-17T08:48:49;112741.81;;;-145.50;47.43
50226;BME280;36113;50.742;6.432;2023-03-17T08:51:15;112741.81;;;-145.50;47.82
50226;BME280;36113;50.742;6.432;2023-03-17T08:53:41;112741.81;;;-145.50;48.00
50226;BME280;36113;50.742;6.432;2023-03-17T08:56:07;112741.81;;;-145.50;47.95
50226;BME280;36113;50.742;6.432;2023-03-17T08:58:34;112741.81;;;-145.50;47.97
50226;BME280;36113;50.742;6.432;2023-03-17T09:01:01;112741.81;;;-145.50;47.14
50226;BME280;36113;50.742;6.432;2023-03-17T09:03:27;112741.81;;;-145.50;47.53
50226;BME280;36113;50.742;6.432;2023-03-17T09:05:53;112741.81;;;-145.50;48.26
50226;BME280;36113;50.742;6.432;2023-03-17T09:08:19;112741.81;;;-145.50;47.80
50226;BME280;36113;50.742;6.432;2023-03-17T09:10:46;112741.81;;;-145.50;47.53
50226;BME280;36113;50.742;6.432;2023-03-17T09:13:12;112741.81;;;-145.50;47.80
50226;BME280;36113;50.742;6.432;2023-03-17T09:15:38;112741.81;;;-145.50;47.51
50226;BME280;36113;50.742;6.432;2023-03-17T09:18:04;112741.81;;;-145.50;47.34
50226;BME280;36113;50.742;6.432;2023-03-17T09:20:30;112741.81;;;-145.50;47.29
50226;BME280;36113;50.742;6.432;2023-03-17T09:22:55;112741.81;;;-145.50;46.88
50226;BME280;36113;50.742;6.432;2023-03-17T09:25:22;112741.81;;;-145.50;46.68
50226;BME280;36113;50.742;6.432;2023-03-17T09:27:48;112741.81;;;-145.50;47.23
50226;BME280;36113;50.742;6.432;2023-03-17T09:30:13;112741.81;;;-145.50;47.40
50226;BME280;36113;50.742;6.432;2023-03-17T09:32:39;112741.81;;;-145.50;47.17
50226;BME280;36113;50.742;6.432;2023-03-17T09:35:05;112741.81;;;-145.50;46.83
50226;BME280;36113;50.742;6.432;2023-03-17T09:37:31;112741.81;;;-145.50;46.99
50226;BME280;36113;50.742;6.432;2023-03-17T09:39:58;112741.81;;;-145.50;46.84
50226;BME280;36113;50.742;6.432;2023-03-17T09:42:46;112741.81;;;-145.50;45.79
50226;BME280;36113;50.742;6.432;2023-03-17T09:45:31;112741.81;;;-145.50;46.77
50226;BME280;36113;50.742;6.432;2023-03-17T09:50:46;112741.81;;;-145.50;46.33
50226;BME280;36113;50.742;6.432;2023-03-17T09:53:19;112741.81;;;-145.50;46.65
50226;BME280;36113;50.742;6.432;2023-03-17T09:55:47;112741.81;;;-145.50;46.40
50226;BME280;36113;50.742;6.432;2023-03-17T09:58:14;112741.81;;;-145.50;46.31
50226;BME280;36113;50.742;6.432;2023-03-17T10:00:39;112741.81;;;-145.50;46.42
50226;BME280;36113;50.742;6.432;2023-03-17T10:03:09;112741.81;;;-145.50;45.67
50226;BME280;36113;50.742;6.432;2023-03-17T10:05:34;112741.81;;;-145.50;46.39
50226;BME280;36113;50.742;6.432;2023-03-17T10:08:13;112741.81;;;-145.50;46.73
50226;BME280;36113;50.742;6.432;2023-03-17T10:15:53;112741.81;;;-145.50;45.82
50226;BME280;36113;50.742;6.432;2023-03-17T10:18:25;112741.81;;;-145.50;44.97
50226;BME280;36113;50.742;6.432;2023-03-17T10:21:17;112741.81;;;-145.50;45.77
50226;BME280;36113;50.742;6.432;2023-03-17T10:23:44;112741.81;;;-145.50;46.17
50226;BME280;36113;50.742;6.432;2023-03-17T10:26:43;112741.81;;;-145.50;45.09
50226;BME280;36113;50.742;6.432;2023-03-17T10:29:15;112741.81;;;-145.50;44.78
50226;BME280;36113;50.742;6.432;2023-03-17T10:31:41;112741.81;;;-145.50;43.81
50226;BME280;36113;50.742;6.432;2023-03-17T10:34:25;112741.81;;;-145.50;44.12
50226;BME280;36113;50.742;6.432;2023-03-17T10:37:00;112741.81;;;-145.50;43.61
50226;BME280;36113;50.742;6.432;2023-03-17T10:39:26;112741.81;;;-145.50;43.76
50226;BME280;36113;50.742;6.432;2023-03-17T10:44:28;112741.81;;;-145.50;43.43
50226;BME280;36113;50.742;6.432;2023-03-17T10:46:59;112741.81;;;-145.50;43.23
50226;BME280;36113;50.742;6.432;2023-03-17T10:49:25;112741.81;;;-145.50;43.07
50226;BME280;36113;50.742;6.432;2023-03-17T10:51:52;112741.81;;;-145.50;42.80
50226;BME280;36113;50.742;6.432;2023-03-17T10:54:19;112741.81;;;-145.50;42.93
50226;BME280;36113;50.742;6.432;2023-03-17T10:56:49;112741.81;;;-145.50;42.90
50226;BME280;36113;50.742;6.432;2023-03-17T10:59:26;112741.81;;;-145.50;42.57
50226;BME280;36113;50.742;6.432;2023-03-17T11:01:55;112741.81;;;-145.50;43.08
50226;BME280;36113;50.742;6.432;2023-03-17T11:04:31;112741.81;;;-145.50;42.90
50226;BME280;36113;50.742;6.432;2023-03-17T11:06:59;112741.81;;;-145.50;43.58
50226;BME280;36113;50.742;6.432;2023-03-17T11:09:33;112741.81;;;-145.50;43.23
50226;BME280;36113;50.742;6.432;2023-03-17T11:12:24;112741.81;;;-145.50;42.63
50226;BME280;36113;50.742;6.432;2023-03-17T11:14:48;112741.81;;;-145.50;43.49
50226;BME280;36113;50.742;6.432;2023-03-17T11:17:32;112741.81;;;-145.50;43.78
50226;BME280;36113;50.742;6.432;2023-03-17T11:22:46;112741.81;;;-145.50;43.04
50226;BME280;36113;50.742;6.432;2023-03-17T11:25:17;112741.81;;;-145.50;43.04
50226;BME280;36113;50.742;6.432;2023-03-17T11:30:59;112741.81;;;-145.50;43.23
50226;BME280;36113;50.742;6.432;2023-03-17T11:33:57;112741.81;;;-145.50;43.27
50226;BME280;36113;50.742;6.432;2023-03-17T11:36:42;112741.81;;;-145.50;43.26
50226;BME280;36113;50.742;6.432;2023-03-17T11:39:18;112741.81;;;-145.50;42.33
50226;BME280;36113;50.742;6.432;2023-03-17T11:42:05;112741.81;;;-145.50;42.21
50226;BME280;36113;50.742;6.432;2023-03-17T11:50:24;112741.81;;;-145.50;41.26
50226;BME280;36113;50.742;6.432;2023-03-17T11:55:46;112741.81;;;-145.50;41.94
50226;BME280;36113;50.742;6.432;2023-03-17T11:58:33;112741.81;;;-145.50;40.66
50226;BME280;36113;50.742;6.432;2023-03-17T12:01:00;112741.81;;;-145.50;40.67
50226;BME280;36113;50.742;6.432;2023-03-17T12:03:47;112741.81;;;-145.50;40.66
50226;BME280;36113;50.742;6.432;2023-03-17T12:06:25;112741.81;;;-145.50;40.58
50226;BME280;36113;50.742;6.432;2023-03-17T12:09:13;112741.81;;;-145.50;40.19
50226;BME280;36113;50.742;6.432;2023-03-17T12:11:43;112741.81;;;-145.50;40.55
50226;BME280;36113;50.742;6.432;2023-03-17T12:14:34;112741.81;;;-145.50;40.58
50226;BME280;36113;50.742;6.432;2023-03-17T12:22:29;112741.81;;;-145.50;38.48
50226;BME280;36113;50.742;6.432;2023-03-17T12:27:54;112741.81;;;-145.50;38.58
50226;BME280;36113;50.742;6.432;2023-03-17T12:30:29;112741.81;;;-145.50;39.01
50226;BME280;36113;50.742;6.432;2023-03-17T12:33:13;112741.81;;;-145.50;39.07
50226;BME280;36113;50.742;6.432;2023-03-17T12:35:41;112741.81;;;-145.50;37.97
50226;BME280;36113;50.742;6.432;2023-03-17T12:38:11;112741.81;;;-145.50;38.83
50226;BME280;36113;50.742;6.432;2023-03-17T12:52:23;112741.81;;;-145.50;38.28
50226;BME280;36113;50.742;6.432;2023-03-17T12:54:51;112741.81;;;-145.50;37.60
50226;BME280;36113;50.742;6.432;2023-03-17T12:57:26;112741.81;;;-145.50;37.69
50226;BME280;36113;50.742;6.432;2023-03-17T13:00:25;112741.81;;;-145.50;38.14
50226;BME280;36113;50.742;6.432;2023-03-17T13:05:47;112741.81;;;-145.50;38.41
50226;BME280;36113;50.742;6.432;2023-03-17T13:08:20;112741.81;;;-145.50;38.20
50226;BME280;36113;50.742;6.432;2023-03-17T13:10:48;112741.81;;;-145.50;37.94
50226;BME280;36113;50.742;6.432;2023-03-17T13:16:03;112741.81;;;-145.50;38.02
50226;BME280;36113;50.742;6.432;2023-03-17T13:23:44;112741.81;;;-145.50;37.92
50226;BME280;36113;50.742;6.432;2023-03-17T13:26:11;112741.81;;;-145.50;37.93
50226;BME280;36113;50.742;6.432;2023-03-17T13:33:43;112741.81;;;-145.50;37.83
50226;BME280;36113;50.742;6.432;2023-03-17T13:54:29;112741.81;;;-145.50;38.13
50226;BME280;36113;50.742;6.432;2023-03-17T13:57:27;112741.81;;;-145.50;37.95
50226;BME280;36113;50.742;6.432;2023-03-17T13:59:56;112741.81;;;-145.50;38.57